Terminal Aerodrome Forecast
Issued by NWS Cheyenne, WY

Home | Current Version | Previous Version | Text Only | Print | Product List | Glossary On
Versions: 1 2 3 4 5 6 7 8 9 10 11 12 13 14 15 16 17 18
000
FTUS45 KCYS 210530
TAFCYS
TAF
KCYS 210530Z 2106/2206 14010KT 3SM -SN BR OVC003
     FM211000 10006KT 3SM BR OVC002
     FM211600 36008KT 4SM -RASN BR OVC006
     FM211800 36010KT P6SM OVC012
     FM220000 18010KT P6SM OVC008=

USA.gov is the U.S. government's official web portal to all federal, state and local government web resources and services.